Time;durP1;ratioP1;P1;durP2;ratioP2;P2;SDS_P1;SDS_P2;PMS_P1;PMS_P2;Temp;Humidity;BMP_temperature;BMP_pressure;BME280_temperature;BME280_humidity;BME280_pressure;Samples;Min_cycle;Max_cycle;Signal;HPM_P1;HPM_P2
2022/11/04 00:01:04;;;;;;;;;;;17.20;65.50;;;;;;5089793;28;19908;-88
2022/11/04 00:03:29;;;;;;;;;;;17.10;65.30;;;;;;5090056;28;19955;-87
2022/11/04 00:05:59;;;;;;;;;;;17.20;65.50;;;;;;5094076;28;19946;-87
2022/11/04 00:08:24;;;;;;;;;;;17.10;65.40;;;;;;5098157;28;19923;-88
2022/11/04 00:13:37;;;;;;;;;;;17.20;65.50;;;;;;5094544;28;20259;-89
2022/11/04 00:18:47;;;;;;;;;;;17.10;65.50;;;;;;5093855;28;19927;-88
2022/11/04 00:29:25;;;;;;;;;;;17.30;65.40;;;;;;5062354;28;19966;-87
2022/11/04 00:34:35;;;;;;;;;;;17.30;65.20;;;;;;5067908;28;19946;-87
2022/11/04 00:37:01;;;;;;;;;;;17.40;64.90;;;;;;5094502;28;19912;-89
2022/11/04 00:39:27;;;;;;;;;;;17.40;64.90;;;;;;5093615;28;20317;-89
2022/11/04 00:41:53;;;;;;;;;;;17.40;65.00;;;;;;5065597;28;19912;-88
2022/11/04 00:44:19;;;;;;;;;;;17.40;64.90;;;;;;5072436;28;20007;-87
2022/11/04 00:46:44;;;;;;;;;;;17.40;64.90;;;;;;5059834;28;20266;-87
2022/11/04 00:49:10;;;;;;;;;;;17.40;64.90;;;;;;5066910;28;19924;-89
2022/11/04 00:51:38;;;;;;;;;;;17.40;64.70;;;;;;5074159;28;19925;-86
2022/11/04 00:54:20;;;;;;;;;;;17.50;64.80;;;;;;5079749;28;20362;-86
2022/11/04 00:56:47;;;;;;;;;;;17.50;64.70;;;;;;5091540;28;19981;-84
2022/11/04 00:59:13;;;;;;;;;;;17.50;64.80;;;;;;5071505;28;20485;-89
2022/11/04 01:01:39;;;;;;;;;;;17.50;65.00;;;;;;5071526;28;19912;-88
2022/11/04 01:04:04;;;;;;;;;;;17.40;64.70;;;;;;5071720;28;19962;-89
2022/11/04 01:06:29;;;;;;;;;;;17.40;64.90;;;;;;5066646;28;19912;-87
2022/11/04 01:08:56;;;;;;;;;;;17.50;64.90;;;;;;5065435;28;19913;-90
2022/11/04 01:11:21;;;;;;;;;;;17.50;65.00;;;;;;5056308;28;19934;-88
2022/11/04 01:13:50;;;;;;;;;;;17.50;64.90;;;;;;5070536;28;20122;-89
2022/11/04 01:16:16;;;;;;;;;;;17.50;64.80;;;;;;5064653;28;19962;-88
2022/11/04 01:18:42;;;;;;;;;;;17.60;64.70;;;;;;5064983;28;19980;-89
2022/11/04 01:21:09;;;;;;;;;;;17.50;64.70;;;;;;5067908;28;19915;-89
2022/11/04 01:23:34;;;;;;;;;;;17.50;64.60;;;;;;5069049;28;19919;-88
2022/11/04 01:26:00;;;;;;;;;;;17.50;64.50;;;;;;5079349;28;19924;-87
2022/11/04 01:28:25;;;;;;;;;;;17.50;64.60;;;;;;5092884;28;20305;-89
2022/11/04 01:30:51;;;;;;;;;;;17.50;64.30;;;;;;5091342;28;20015;-89
2022/11/04 01:33:24;;;;;;;;;;;17.50;64.30;;;;;;5087991;28;19928;-87
2022/11/04 01:35:50;;;;;;;;;;;17.40;64.30;;;;;;5064080;28;19927;-87
2022/11/04 01:38:15;;;;;;;;;;;17.40;64.40;;;;;;5072340;28;20398;-88
2022/11/04 01:40:41;;;;;;;;;;;17.50;64.20;;;;;;5066669;28;20028;-89
2022/11/04 01:43:14;;;;;;;;;;;17.50;64.20;;;;;;5056872;28;19912;-88
2022/11/04 01:45:41;;;;;;;;;;;17.40;64.10;;;;;;5052502;28;19913;-88
2022/11/04 01:48:10;;;;;;;;;;;17.40;64.10;;;;;;5052619;28;19947;-90
2022/11/04 01:50:35;;;;;;;;;;;17.40;63.90;;;;;;5069230;28;19916;-87
2022/11/04 01:53:04;;;;;;;;;;;17.40;63.90;;;;;;5070920;28;19963;-87
2022/11/04 01:55:34;;;;;;;;;;;17.30;63.70;;;;;;5071749;28;19923;-87
2022/11/04 01:58:01;;;;;;;;;;;17.30;63.90;;;;;;5070317;28;20394;-87
2022/11/04 02:00:27;;;;;;;;;;;17.30;64.10;;;;;;5071591;28;19912;-87
2022/11/04 02:02:56;;;;;;;;;;;17.30;64.00;;;;;;5052504;28;19981;-90
2022/11/04 02:05:22;;;;;;;;;;;17.30;63.90;;;;;;5051354;28;19917;-89
2022/11/04 02:07:49;;;;;;;;;;;17.30;63.90;;;;;;5060268;28;19920;-87
2022/11/04 02:10:15;;;;;;;;;;;17.30;63.90;;;;;;5062573;28;20026;-86
2022/11/04 02:12:49;;;;;;;;;;;17.30;63.80;;;;;;5071618;28;20458;-86
2022/11/04 02:15:19;;;;;;;;;;;17.20;63.70;;;;;;5062683;28;19966;-88
2022/11/04 02:17:59;;;;;;;;;;;17.20;63.40;;;;;;5050122;28;20596;-89
2022/11/04 02:20:24;;;;;;;;;;;17.20;63.30;;;;;;5051971;28;20006;-88
2022/11/04 02:23:01;;;;;;;;;;;17.10;63.40;;;;;;5050366;28;20454;-87
2022/11/04 02:25:26;;;;;;;;;;;17.10;63.50;;;;;;5053886;28;19928;-88
2022/11/04 02:27:52;;;;;;;;;;;17.00;63.50;;;;;;5061911;28;19917;-88
2022/11/04 02:30:18;;;;;;;;;;;17.00;63.20;;;;;;5061677;28;20379;-88
2022/11/04 02:33:02;;;;;;;;;;;16.90;63.40;;;;;;5050640;28;19927;-86
2022/11/04 02:35:34;;;;;;;;;;;16.90;63.40;;;;;;5070998;28;19974;-88
2022/11/04 02:38:07;;;;;;;;;;;16.90;63.60;;;;;;5070039;28;19999;-87
2022/11/04 02:40:38;;;;;;;;;;;16.90;63.80;;;;;;5071990;28;19913;-88
2022/11/04 02:43:11;;;;;;;;;;;16.90;63.80;;;;;;5072031;28;19920;-87
2022/11/04 02:45:39;;;;;;;;;;;16.90;63.80;;;;;;5060052;28;19999;-89
2022/11/04 02:48:09;;;;;;;;;;;16.90;63.60;;;;;;5066986;28;19920;-88
2022/11/04 02:50:40;;;;;;;;;;;16.90;63.80;;;;;;5061979;28;19913;-90
2022/11/04 02:53:19;;;;;;;;;;;16.90;63.60;;;;;;5051806;28;19934;-88
2022/11/04 02:55:46;;;;;;;;;;;16.90;63.60;;;;;;5061638;28;19917;-88
2022/11/04 02:58:14;;;;;;;;;;;16.90;63.60;;;;;;5066433;28;19912;-87
2022/11/04 03:00:41;;;;;;;;;;;16.90;63.70;;;;;;5058649;28;19916;-90
2022/11/04 03:03:13;;;;;;;;;;;16.80;63.40;;;;;;5071272;28;20492;-89
2022/11/04 03:05:40;;;;;;;;;;;16.80;63.50;;;;;;5061908;28;19919;-88
2022/11/04 03:08:14;;;;;;;;;;;16.80;63.50;;;;;;5068343;28;20402;-87
2022/11/04 03:10:42;;;;;;;;;;;16.70;63.40;;;;;;5064583;28;19928;-88
2022/11/04 03:13:07;;;;;;;;;;;16.60;63.20;;;;;;5063742;28;20400;-88
2022/11/04 03:15:34;;;;;;;;;;;16.60;63.20;;;;;;5069145;28;19918;-90
2022/11/04 03:18:18;;;;;;;;;;;16.60;63.60;;;;;;5073025;28;20828;-88
2022/11/04 03:20:45;;;;;;;;;;;16.50;63.60;;;;;;5064663;28;19922;-87
2022/11/04 03:23:10;;;;;;;;;;;16.50;63.60;;;;;;5056148;28;19939;-90
2022/11/04 03:25:39;;;;;;;;;;;16.50;63.80;;;;;;5052869;28;19921;-89
2022/11/04 03:28:11;;;;;;;;;;;16.50;63.90;;;;;;5069461;28;19919;-86
2022/11/04 03:30:43;;;;;;;;;;;16.60;63.80;;;;;;5070510;28;19913;-87
2022/11/04 03:33:25;;;;;;;;;;;16.60;63.90;;;;;;5070195;28;19973;-88
2022/11/04 03:35:51;;;;;;;;;;;16.60;63.70;;;;;;5064211;28;19964;-88
2022/11/04 03:38:16;;;;;;;;;;;16.50;63.50;;;;;;5059946;28;20357;-87
2022/11/04 03:40:42;;;;;;;;;;;16.40;63.20;;;;;;5087044;28;19916;-87
2022/11/04 03:43:16;;;;;;;;;;;16.30;63.00;;;;;;5076659;28;20279;-89
2022/11/04 03:45:42;;;;;;;;;;;16.20;62.90;;;;;;5060914;28;20011;-88
2022/11/04 03:48:10;;;;;;;;;;;16.20;62.80;;;;;;5053451;28;19913;-89
2022/11/04 03:50:40;;;;;;;;;;;16.00;62.50;;;;;;5053216;28;19939;-89
2022/11/04 03:53:06;;;;;;;;;;;15.90;62.40;;;;;;5066350;28;19987;-88
2022/11/04 03:55:41;;;;;;;;;;;15.80;62.80;;;;;;5072467;28;19920;-87
2022/11/04 03:58:16;;;;;;;;;;;15.80;63.00;;;;;;5068127;28;20042;-90
2022/11/04 04:00:47;;;;;;;;;;;15.80;63.20;;;;;;5068159;28;19922;-87
2022/11/04 04:03:29;;;;;;;;;;;15.80;63.40;;;;;;5059850;28;20026;-89
2022/11/04 04:06:03;;;;;;;;;;;15.80;63.70;;;;;;5088620;28;19952;-87
2022/11/04 04:08:41;;;;;;;;;;;16.00;64.10;;;;;;5072829;28;20350;-87
2022/11/04 04:11:07;;;;;;;;;;;16.00;64.10;;;;;;5071380;28;19915;-88
2022/11/04 04:13:52;;;;;;;;;;;16.00;64.30;;;;;;5061299;28;19925;-88
2022/11/04 04:16:25;;;;;;;;;;;16.10;64.20;;;;;;5080079;28;20275;-88
2022/11/04 04:18:54;;;;;;;;;;;16.20;64.10;;;;;;5076642;28;20359;-88
2022/11/04 04:21:21;;;;;;;;;;;16.20;64.10;;;;;;5072715;28;20405;-88
2022/11/04 04:29:17;;;;;;;;;;;16.30;64.10;;;;;;5072042;28;19958;-88
2022/11/04 04:31:48;;;;;;;;;;;16.30;64.00;;;;;;5060369;28;19917;-88
2022/11/04 04:34:24;;;;;;;;;;;16.30;64.10;;;;;;5063688;28;19916;-88
2022/11/04 04:36:56;;;;;;;;;;;16.40;63.80;;;;;;5059712;28;19913;-90
2022/11/04 04:45:03;;;;;;;;;;;16.20;63.70;;;;;;5061485;28;19919;-87
2022/11/04 04:47:38;;;;;;;;;;;16.10;63.70;;;;;;5071777;28;19918;-87
2022/11/04 04:50:04;;;;;;;;;;;16.10;63.70;;;;;;5072676;28;19928;-89
2022/11/04 04:52:32;;;;;;;;;;;16.20;63.90;;;;;;5079971;28;19927;-88
2022/11/04 04:54:58;;;;;;;;;;;16.20;63.90;;;;;;5060204;28;20007;-87
2022/11/04 04:57:23;;;;;;;;;;;16.30;63.80;;;;;;5060570;28;19968;-87
2022/11/04 04:59:49;;;;;;;;;;;16.30;63.90;;;;;;5072188;28;20477;-87
2022/11/04 05:02:14;;;;;;;;;;;16.30;63.80;;;;;;5070393;28;19917;-87
2022/11/04 05:04:40;;;;;;;;;;;16.40;63.70;;;;;;5060844;28;20007;-89
2022/11/04 05:07:06;;;;;;;;;;;16.40;63.60;;;;;;5065999;28;19912;-88
2022/11/04 05:09:32;;;;;;;;;;;16.40;63.50;;;;;;5067722;28;19924;-88
2022/11/04 05:11:57;;;;;;;;;;;16.40;63.40;;;;;;5073331;28;19920;-88
2022/11/04 05:14:23;;;;;;;;;;;16.40;63.50;;;;;;5053133;28;19916;-88
2022/11/04 05:16:48;;;;;;;;;;;16.40;63.60;;;;;;5061394;28;19912;-88
2022/11/04 05:19:14;;;;;;;;;;;16.40;63.30;;;;;;5059790;28;19978;-87
2022/11/04 05:21:39;;;;;;;;;;;16.40;63.50;;;;;;5052365;28;19932;-90
2022/11/04 05:24:05;;;;;;;;;;;16.40;63.50;;;;;;5063500;28;19923;-87
2022/11/04 05:26:30;;;;;;;;;;;16.40;63.60;;;;;;5068835;28;20369;-88
2022/11/04 05:28:56;;;;;;;;;;;16.50;63.50;;;;;;5056454;28;19917;-88
2022/11/04 05:31:21;;;;;;;;;;;16.50;63.50;;;;;;5061860;28;19940;-89
2022/11/04 05:33:47;;;;;;;;;;;16.50;63.50;;;;;;5069169;28;19928;-90
2022/11/04 05:36:13;;;;;;;;;;;16.50;63.40;;;;;;5062111;28;19973;-88
2022/11/04 05:38:39;;;;;;;;;;;16.50;63.40;;;;;;5061961;28;19924;-87
2022/11/04 05:41:05;;;;;;;;;;;16.60;63.40;;;;;;5066221;28;19913;-89
2022/11/04 05:43:31;;;;;;;;;;;16.50;63.50;;;;;;5078867;28;19920;-89
2022/11/04 05:45:59;;;;;;;;;;;16.60;63.50;;;;;;5060189;28;20354;-88
2022/11/04 05:48:25;;;;;;;;;;;16.60;63.50;;;;;;5071573;28;19916;-87
2022/11/04 05:50:51;;;;;;;;;;;16.50;63.10;;;;;;5071348;28;19924;-88
2022/11/04 05:53:16;;;;;;;;;;;16.50;63.00;;;;;;5073426;28;19927;-88
2022/11/04 05:55:42;;;;;;;;;;;16.30;62.80;;;;;;5071906;28;19955;-88
2022/11/04 05:58:08;;;;;;;;;;;16.20;62.60;;;;;;5063329;28;19912;-88
2022/11/04 06:00:33;;;;;;;;;;;16.10;62.30;;;;;;5065713;28;19917;-89
2022/11/04 06:02:59;;;;;;;;;;;16.00;62.30;;;;;;5069442;28;19908;-88
2022/11/04 06:05:25;;;;;;;;;;;15.90;62.60;;;;;;5050846;28;20458;-87
2022/11/04 06:07:51;;;;;;;;;;;15.90;63.20;;;;;;5050553;28;19941;-88
2022/11/04 06:10:16;;;;;;;;;;;15.90;63.40;;;;;;5051157;28;20264;-87
2022/11/04 06:12:42;;;;;;;;;;;16.00;63.50;;;;;;5050144;28;19917;-89
2022/11/04 06:15:08;;;;;;;;;;;16.00;63.60;;;;;;5072584;28;19916;-87
2022/11/04 06:17:33;;;;;;;;;;;16.10;63.60;;;;;;5080850;28;19912;-88
2022/11/04 06:19:59;;;;;;;;;;;16.10;63.60;;;;;;5090114;28;19919;-87
2022/11/04 06:22:24;;;;;;;;;;;16.10;63.60;;;;;;5091671;28;19950;-88
2022/11/04 06:24:50;;;;;;;;;;;16.10;63.50;;;;;;5086976;28;19935;-88
2022/11/04 06:27:15;;;;;;;;;;;16.10;63.20;;;;;;5068464;28;20063;-87
2022/11/04 06:29:41;;;;;;;;;;;16.10;63.40;;;;;;5073399;28;19913;-88
2022/11/04 06:32:07;;;;;;;;;;;16.20;63.60;;;;;;5063607;28;20284;-88
2022/11/04 06:34:33;;;;;;;;;;;16.20;63.50;;;;;;5062548;28;19924;-89
2022/11/04 06:36:58;;;;;;;;;;;16.20;63.60;;;;;;5057644;28;20398;-87
2022/11/04 06:39:24;;;;;;;;;;;16.20;63.50;;;;;;5064353;28;19916;-88
2022/11/04 06:41:49;;;;;;;;;;;16.20;63.50;;;;;;5057792;28;19921;-88
2022/11/04 06:44:15;;;;;;;;;;;16.20;63.40;;;;;;5058828;28;19987;-89
2022/11/04 06:46:41;;;;;;;;;;;16.20;63.50;;;;;;5071070;28;19923;-88
2022/11/04 06:49:13;;;;;;;;;;;16.20;63.30;;;;;;5067869;28;19913;-88
2022/11/04 06:51:39;;;;;;;;;;;16.30;63.50;;;;;;5062100;28;19916;-87
2022/11/04 06:54:05;;;;;;;;;;;16.30;63.70;;;;;;5065810;28;19969;-88
2022/11/04 06:56:32;;;;;;;;;;;16.30;63.50;;;;;;5062202;28;19938;-88
2022/11/04 06:58:58;;;;;;;;;;;16.30;63.20;;;;;;5050866;28;19917;-86
2022/11/04 07:01:25;;;;;;;;;;;16.30;63.30;;;;;;5063164;28;19931;-86
2022/11/04 07:03:51;;;;;;;;;;;16.30;63.40;;;;;;5067999;28;19921;-87
2022/11/04 07:06:18;;;;;;;;;;;16.30;63.20;;;;;;5063392;28;20417;-87
2022/11/04 07:08:44;;;;;;;;;;;16.40;63.10;;;;;;5060773;28;19970;-89
2022/11/04 07:11:09;;;;;;;;;;;16.40;63.20;;;;;;5066722;28;20693;-89
2022/11/04 07:13:34;;;;;;;;;;;16.40;63.30;;;;;;5067140;28;19925;-88
2022/11/04 07:16:02;;;;;;;;;;;16.40;63.20;;;;;;5070255;28;19985;-87
2022/11/04 07:18:28;;;;;;;;;;;16.40;63.30;;;;;;5067761;28;19916;-86
2022/11/04 07:20:53;;;;;;;;;;;16.50;63.10;;;;;;5070601;28;20445;-85
2022/11/04 07:23:19;;;;;;;;;;;16.50;63.30;;;;;;5064811;28;20008;-87
2022/11/04 07:25:44;;;;;;;;;;;16.50;63.30;;;;;;5068351;28;20368;-89
2022/11/04 07:28:10;;;;;;;;;;;16.50;63.10;;;;;;5068341;28;20009;-88
2022/11/04 07:30:36;;;;;;;;;;;16.60;63.00;;;;;;5068237;28;19995;-88
2022/11/04 07:33:01;;;;;;;;;;;16.50;63.10;;;;;;5068820;28;19927;-87
2022/11/04 07:35:27;;;;;;;;;;;16.60;63.20;;;;;;5057418;28;19916;-86
2022/11/04 07:37:53;;;;;;;;;;;16.60;63.20;;;;;;5071410;28;19916;-87
2022/11/04 07:40:19;;;;;;;;;;;16.60;63.40;;;;;;5058948;28;19924;-88
2022/11/04 07:42:44;;;;;;;;;;;16.70;63.70;;;;;;5056253;28;19925;-86
2022/11/04 07:45:10;;;;;;;;;;;16.80;63.70;;;;;;5061139;28;19920;-90
2022/11/04 07:47:35;;;;;;;;;;;16.80;63.60;;;;;;5051231;28;19923;-88
2022/11/04 07:50:01;;;;;;;;;;;16.90;63.20;;;;;;5062658;28;19916;-86
2022/11/04 07:52:26;;;;;;;;;;;16.90;63.10;;;;;;5061933;28;19928;-86
2022/11/04 07:54:52;;;;;;;;;;;16.90;62.90;;;;;;5056155;28;19923;-87
2022/11/04 07:57:17;;;;;;;;;;;16.90;63.10;;;;;;5062887;28;19924;-89
2022/11/04 07:59:46;;;;;;;;;;;16.90;63.10;;;;;;5072541;28;20038;-87
2022/11/04 08:02:11;;;;;;;;;;;17.00;63.40;;;;;;5061533;28;19921;-86
2022/11/04 08:04:37;;;;;;;;;;;17.10;64.10;;;;;;5049623;28;20536;-87
2022/11/04 08:07:04;;;;;;;;;;;17.40;65.70;;;;;;5063819;28;19921;-88
2022/11/04 08:09:32;;;;;;;;;;;17.80;67.00;;;;;;5064991;28;20425;-88
2022/11/04 08:11:58;;;;;;;;;;;18.40;67.30;;;;;;5063772;28;20294;-87
2022/11/04 08:14:23;;;;;;;;;;;18.90;67.10;;;;;;5066351;28;19928;-88
2022/11/04 08:16:50;;;;;;;;;;;19.30;66.80;;;;;;5059180;28;20346;-87
2022/11/04 08:19:15;;;;;;;;;;;19.80;67.10;;;;;;5053643;28;20366;-87
2022/11/04 08:21:41;;;;;;;;;;;20.30;65.20;;;;;;5064650;28;20314;-89
2022/11/04 08:24:06;;;;;;;;;;;20.50;64.70;;;;;;5052198;28;19916;-88
2022/11/04 08:26:32;;;;;;;;;;;20.70;64.00;;;;;;5061637;28;19928;-87
2022/11/04 08:28:58;;;;;;;;;;;21.00;63.70;;;;;;5059022;28;19916;-89
2022/11/04 08:31:25;;;;;;;;;;;21.30;63.90;;;;;;5063572;28;19964;-89
2022/11/04 08:33:51;;;;;;;;;;;21.60;64.20;;;;;;5061203;28;20015;-90
2022/11/04 08:36:18;;;;;;;;;;;22.00;64.00;;;;;;5060903;28;20299;-89
2022/11/04 08:38:44;;;;;;;;;;;22.40;63.60;;;;;;5057014;28;19917;-89
2022/11/04 08:41:10;;;;;;;;;;;22.70;63.80;;;;;;5058060;28;19916;-89
2022/11/04 08:43:36;;;;;;;;;;;23.10;63.20;;;;;;5058143;28;19921;-88
2022/11/04 08:46:03;;;;;;;;;;;23.40;61.00;;;;;;5058317;28;19916;-89
2022/11/04 08:48:32;;;;;;;;;;;23.50;60.50;;;;;;5055785;28;20466;-89
2022/11/04 08:51:06;;;;;;;;;;;23.80;61.50;;;;;;5060165;28;19917;-89
2022/11/04 08:53:32;;;;;;;;;;;24.00;60.00;;;;;;5061518;28;20477;-87
2022/11/04 08:55:57;;;;;;;;;;;24.10;59.50;;;;;;5053089;28;19916;-87
2022/11/04 08:58:23;;;;;;;;;;;24.20;60.00;;;;;;5055461;28;19963;-88
2022/11/04 09:00:49;;;;;;;;;;;24.20;60.20;;;;;;5054620;28;19938;-87
2022/11/04 09:03:15;;;;;;;;;;;24.10;57.20;;;;;;5055241;28;19974;-87
2022/11/04 09:05:43;;;;;;;;;;;23.80;57.20;;;;;;5056877;28;19967;-87
2022/11/04 09:08:13;;;;;;;;;;;23.60;56.70;;;;;;5058980;28;19990;-87
2022/11/04 09:10:42;;;;;;;;;;;23.30;57.10;;;;;;5057019;28;19949;-87
2022/11/04 09:13:10;;;;;;;;;;;23.10;56.50;;;;;;5049362;28;19924;-87
2022/11/04 09:15:36;;;;;;;;;;;22.90;56.70;;;;;;5063470;28;19921;-88
2022/11/04 09:18:01;;;;;;;;;;;22.70;56.90;;;;;;5054823;28;19921;-88
2022/11/04 09:20:27;;;;;;;;;;;22.40;57.00;;;;;;5054309;28;20052;-89
2022/11/04 09:22:54;;;;;;;;;;;22.20;55.70;;;;;;5059130;28;19924;-88
2022/11/04 09:25:20;;;;;;;;;;;22.00;56.30;;;;;;5052548;28;20567;-87
2022/11/04 09:27:45;;;;;;;;;;;21.80;56.70;;;;;;5059260;28;19921;-87
2022/11/04 09:30:11;;;;;;;;;;;21.70;57.10;;;;;;5065299;28;19916;-87
2022/11/04 09:32:36;;;;;;;;;;;21.50;56.30;;;;;;5059265;28;20450;-88
2022/11/04 09:35:02;;;;;;;;;;;21.40;56.90;;;;;;5055157;28;20360;-89
2022/11/04 09:37:28;;;;;;;;;;;21.30;57.60;;;;;;5050355;28;19916;-89
2022/11/04 09:39:53;;;;;;;;;;;21.30;57.50;;;;;;5054108;28;20017;-88
2022/11/04 09:42:37;;;;;;;;;;;21.20;58.00;;;;;;5049304;28;19948;-88
2022/11/04 09:45:04;;;;;;;;;;;21.10;57.40;;;;;;5055790;28;19925;-87
2022/11/04 09:47:32;;;;;;;;;;;21.00;57.90;;;;;;5065554;28;19925;-89
2022/11/04 09:49:58;;;;;;;;;;;20.90;57.10;;;;;;5067386;28;20430;-89
2022/11/04 09:52:26;;;;;;;;;;;20.90;56.70;;;;;;5065413;28;19935;-88
2022/11/04 09:55:01;;;;;;;;;;;20.80;56.60;;;;;;5074348;28;19943;-88
2022/11/04 09:57:27;;;;;;;;;;;20.70;56.40;;;;;;5071753;28;19943;-88
2022/11/04 09:59:53;;;;;;;;;;;20.70;57.00;;;;;;5050441;28;19920;-89
2022/11/04 10:02:24;;;;;;;;;;;20.70;57.20;;;;;;5060014;28;19991;-87
2022/11/04 10:04:56;;;;;;;;;;;20.60;57.00;;;;;;5047333;28;19952;-89
2022/11/04 10:07:40;;;;;;;;;;;20.60;56.30;;;;;;5049398;28;20307;-88
2022/11/04 10:10:15;;;;;;;;;;;20.70;56.90;;;;;;5066854;28;20504;-88
2022/11/04 10:12:55;;;;;;;;;;;20.90;58.00;;;;;;5069097;28;19993;-90
2022/11/04 10:15:27;;;;;;;;;;;21.10;57.50;;;;;;5067105;28;20007;-90
2022/11/04 10:18:06;;;;;;;;;;;21.30;56.70;;;;;;5066801;28;19927;-87
2022/11/04 10:20:57;;;;;;;;;;;21.50;57.10;;;;;;5056550;28;19913;-89
2022/11/04 10:23:33;;;;;;;;;;;21.70;55.90;;;;;;5049277;28;19921;-92
2022/11/04 10:26:01;;;;;;;;;;;21.80;56.00;;;;;;5047966;28;19927;-87
2022/11/04 10:28:35;;;;;;;;;;;22.20;56.20;;;;;;5048487;28;20322;-90
2022/11/04 10:31:01;;;;;;;;;;;22.70;55.80;;;;;;5046783;28;19927;-88
2022/11/04 10:33:33;;;;;;;;;;;23.00;54.80;;;;;;5054074;28;19921;-88
2022/11/04 10:36:00;;;;;;;;;;;23.10;52.40;;;;;;5056710;28;19924;-87
2022/11/04 10:38:28;;;;;;;;;;;23.10;52.50;;;;;;5048120;28;19959;-89
2022/11/04 10:40:55;;;;;;;;;;;23.20;53.20;;;;;;5046933;28;19920;-88
2022/11/04 10:43:31;;;;;;;;;;;23.50;53.40;;;;;;5047665;28;19923;-87
2022/11/04 10:45:57;;;;;;;;;;;24.00;53.50;;;;;;5064820;28;20651;-89
2022/11/04 10:48:34;;;;;;;;;;;24.30;52.50;;;;;;5068962;28;19916;-88
2022/11/04 10:50:59;;;;;;;;;;;24.50;51.00;;;;;;5067333;28;20022;-88
2022/11/04 10:53:27;;;;;;;;;;;24.90;51.10;;;;;;5067098;28;20011;-89
2022/11/04 10:56:05;;;;;;;;;;;25.30;50.30;;;;;;5067515;28;19942;-89
2022/11/04 10:58:34;;;;;;;;;;;25.80;49.60;;;;;;5049224;28;19948;-88
2022/11/04 11:01:19;;;;;;;;;;;26.00;47.80;;;;;;5047797;28;19921;-89
2022/11/04 11:03:45;;;;;;;;;;;26.10;47.10;;;;;;5050478;28;19917;-89
2022/11/04 11:06:20;;;;;;;;;;;26.00;47.20;;;;;;5062098;28;20006;-87
2022/11/04 11:08:45;;;;;;;;;;;25.80;47.00;;;;;;5062474;28;19924;-88
2022/11/04 11:11:11;;;;;;;;;;;25.70;47.20;;;;;;5046108;28;20367;-87
2022/11/04 11:13:41;;;;;;;;;;;25.60;46.90;;;;;;5058095;28;20351;-88
2022/11/04 11:16:08;;;;;;;;;;;25.50;47.50;;;;;;5050522;28;20446;-87
2022/11/04 11:18:36;;;;;;;;;;;25.40;48.10;;;;;;5059451;28;19944;-87
2022/11/04 11:21:04;;;;;;;;;;;25.60;48.60;;;;;;5058835;28;19920;-88
2022/11/04 11:23:35;;;;;;;;;;;25.60;46.90;;;;;;5054943;28;19951;-89
2022/11/04 11:26:01;;;;;;;;;;;25.70;46.90;;;;;;5054947;28;19951;-87
2022/11/04 11:28:27;;;;;;;;;;;25.50;46.40;;;;;;5056026;28;20661;-87
2022/11/04 11:30:54;;;;;;;;;;;25.30;45.50;;;;;;5064889;28;19928;-87
2022/11/04 11:33:20;;;;;;;;;;;25.20;46.20;;;;;;5052727;28;19935;-87
2022/11/04 11:35:57;;;;;;;;;;;25.30;46.00;;;;;;5054802;28;20281;-86
2022/11/04 11:38:26;;;;;;;;;;;25.30;45.00;;;;;;5063174;28;19916;-88
2022/11/04 11:40:53;;;;;;;;;;;25.20;44.50;;;;;;5070081;28;19924;-90
2022/11/04 11:43:24;;;;;;;;;;;25.30;44.30;;;;;;5049936;28;19923;-90
2022/11/04 11:45:50;;;;;;;;;;;25.10;43.10;;;;;;5056303;28;19932;-89
2022/11/04 11:48:34;;;;;;;;;;;24.80;42.70;;;;;;5050501;28;19917;-89
2022/11/04 11:51:00;;;;;;;;;;;24.40;43.60;;;;;;5048393;28;19925;-88
2022/11/04 11:53:28;;;;;;;;;;;24.00;43.60;;;;;;5055158;28;20687;-90
2022/11/04 11:56:13;;;;;;;;;;;23.60;44.70;;;;;;5053231;28;19971;-88
2022/11/04 11:58:45;;;;;;;;;;;23.40;45.60;;;;;;5052588;28;19920;-87
2022/11/04 12:01:13;;;;;;;;;;;23.10;45.50;;;;;;5065053;28;19978;-90
2022/11/04 12:03:43;;;;;;;;;;;23.00;46.10;;;;;;5072580;28;19917;-87
2022/11/04 12:06:24;;;;;;;;;;;22.80;46.10;;;;;;5069067;28;19913;-87
2022/11/04 12:09:03;;;;;;;;;;;22.70;46.40;;;;;;5069543;28;20302;-88
2022/11/04 12:11:37;;;;;;;;;;;22.50;47.00;;;;;;5055013;28;19926;-91
2022/11/04 12:14:12;;;;;;;;;;;22.30;47.30;;;;;;5056184;28;19925;-89
2022/11/04 12:16:47;;;;;;;;;;;22.00;47.90;;;;;;5064312;28;19970;-89
2022/11/04 12:19:18;;;;;;;;;;;21.80;48.00;;;;;;5061992;28;19912;-88
2022/11/04 12:21:55;;;;;;;;;;;21.70;48.50;;;;;;5054612;28;19978;-89
2022/11/04 12:24:38;;;;;;;;;;;21.50;48.50;;;;;;5054664;28;20053;-89
2022/11/04 12:27:20;;;;;;;;;;;21.40;48.10;;;;;;5065554;28;19974;-87
2022/11/04 12:29:45;;;;;;;;;;;21.30;48.90;;;;;;5062392;28;19928;-89
2022/11/04 12:32:20;;;;;;;;;;;21.20;49.10;;;;;;5058818;28;19925;-90
2022/11/04 12:34:52;;;;;;;;;;;21.10;48.60;;;;;;5058830;28;20417;-87
2022/11/04 12:37:21;;;;;;;;;;;21.00;47.80;;;;;;5061258;28;20473;-86
2022/11/04 12:40:01;;;;;;;;;;;20.80;48.40;;;;;;5067822;28;20032;-88
2022/11/04 12:42:45;;;;;;;;;;;20.80;48.00;;;;;;5054023;28;19923;-89
2022/11/04 12:45:10;;;;;;;;;;;20.70;49.00;;;;;;5064133;28;19967;-90
2022/11/04 12:47:39;;;;;;;;;;;20.70;49.40;;;;;;5066585;28;19951;-90
2022/11/04 12:50:24;;;;;;;;;;;20.70;49.40;;;;;;5069320;28;20416;-88
2022/11/04 12:53:00;;;;;;;;;;;20.70;49.20;;;;;;5064042;28;20445;-88
2022/11/04 12:55:28;;;;;;;;;;;20.60;49.50;;;;;;5065534;28;20081;-86
2022/11/04 12:57:58;;;;;;;;;;;20.60;49.50;;;;;;5053926;28;19955;-90
2022/11/04 13:00:26;;;;;;;;;;;20.50;49.60;;;;;;5062141;28;19925;-89
2022/11/04 13:03:04;;;;;;;;;;;20.50;49.30;;;;;;5061672;28;19928;-89
2022/11/04 13:05:35;;;;;;;;;;;20.50;49.10;;;;;;5057682;28;19955;-88
2022/11/04 13:08:01;;;;;;;;;;;20.50;49.20;;;;;;5065389;28;20570;-89
2022/11/04 13:10:35;;;;;;;;;;;20.50;49.60;;;;;;5068488;28;19917;-89
2022/11/04 13:13:01;;;;;;;;;;;20.70;49.50;;;;;;5068466;28;19928;-89
2022/11/04 13:15:29;;;;;;;;;;;20.70;49.60;;;;;;5066669;28;19916;-88
2022/11/04 13:17:59;;;;;;;;;;;20.80;49.60;;;;;;5070379;28;19917;-88
2022/11/04 13:20:29;;;;;;;;;;;21.00;49.70;;;;;;5062428;28;20066;-90
2022/11/04 13:22:57;;;;;;;;;;;21.00;49.60;;;;;;5066640;28;19931;-89
2022/11/04 13:25:40;;;;;;;;;;;21.10;49.50;;;;;;5055078;28;19982;-90
2022/11/04 13:28:13;;;;;;;;;;;21.00;49.20;;;;;;5065727;28;19917;-89
2022/11/04 13:30:57;;;;;;;;;;;21.00;48.80;;;;;;5059781;28;19917;-88
2022/11/04 13:33:28;;;;;;;;;;;20.90;48.50;;;;;;5051520;28;20035;-87
2022/11/04 13:36:23;;;;;;;;;;;20.80;48.50;;;;;;5051221;28;20363;-90
2022/11/04 13:38:53;;;;;;;;;;;20.80;48.70;;;;;;5049565;28;20327;-89
2022/11/04 13:41:39;;;;;;;;;;;20.80;48.80;;;;;;5050157;28;19932;-88
2022/11/04 13:44:13;;;;;;;;;;;20.70;48.30;;;;;;5069535;28;19920;-87
2022/11/04 13:46:39;;;;;;;;;;;20.60;48.60;;;;;;5064537;28;19912;-90
2022/11/04 13:49:10;;;;;;;;;;;20.50;48.50;;;;;;5070670;28;19974;-90
2022/11/04 13:51:39;;;;;;;;;;;20.40;48.40;;;;;;5070022;28;19912;-88
2022/11/04 13:54:06;;;;;;;;;;;20.20;48.60;;;;;;5060213;28;19932;-88
2022/11/04 13:56:33;;;;;;;;;;;20.10;48.90;;;;;;5060322;28;19916;-89
2022/11/04 13:59:25;;;;;;;;;;;20.00;49.10;;;;;;5060578;28;19920;-88
2022/11/04 14:02:09;;;;;;;;;;;19.90;49.30;;;;;;5048985;28;20948;-89
2022/11/04 14:04:37;;;;;;;;;;;19.70;49.40;;;;;;5060617;28;20369;-88
2022/11/04 14:07:03;;;;;;;;;;;19.60;49.50;;;;;;5066442;28;19928;-89
2022/11/04 14:09:35;;;;;;;;;;;19.50;49.60;;;;;;5069216;28;20499;-90
2022/11/04 14:12:12;;;;;;;;;;;19.50;49.70;;;;;;5069741;28;20448;-90
2022/11/04 14:14:39;;;;;;;;;;;19.40;49.80;;;;;;5069221;28;20402;-89
2022/11/04 14:17:23;;;;;;;;;;;19.30;50.10;;;;;;5067137;28;19912;-89
2022/11/04 14:19:55;;;;;;;;;;;19.30;50.10;;;;;;5071356;28;19900;-88
2022/11/04 14:22:21;;;;;;;;;;;19.30;50.10;;;;;;5068197;28;19920;-88
2022/11/04 14:24:54;;;;;;;;;;;19.20;50.10;;;;;;5067553;28;19975;-88
2022/11/04 14:27:23;;;;;;;;;;;19.20;50.10;;;;;;5066560;28;19986;-88
2022/11/04 14:29:49;;;;;;;;;;;19.10;50.30;;;;;;5072236;28;20016;-89
2022/11/04 14:32:20;;;;;;;;;;;19.10;50.40;;;;;;5068853;28;19924;-88
2022/11/04 14:34:45;;;;;;;;;;;19.00;50.50;;;;;;5069899;28;19920;-88
2022/11/04 14:37:14;;;;;;;;;;;19.00;50.70;;;;;;5066021;28;19916;-86
2022/11/04 14:39:40;;;;;;;;;;;18.90;50.70;;;;;;5067614;28;19916;-88
2022/11/04 14:42:10;;;;;;;;;;;18.80;50.80;;;;;;5070281;28;19923;-90
2022/11/04 14:44:42;;;;;;;;;;;18.80;50.80;;;;;;5064611;28;19970;-89
2022/11/04 14:47:18;;;;;;;;;;;18.70;50.90;;;;;;5047992;28;19917;-88
2022/11/04 14:49:44;;;;;;;;;;;18.60;50.90;;;;;;5047618;28;20039;-89
2022/11/04 14:52:18;;;;;;;;;;;18.50;51.00;;;;;;5049735;28;20386;-87
2022/11/04 14:54:49;;;;;;;;;;;18.50;51.10;;;;;;5048318;28;19917;-90